x

Montauk Point -23 Nm Ssw Of Montauk Point, Ny (44017) Wave Buoy

3:50 - Tue 17th Jul 2018 All times are EDT. -4 hours from GMT.

  • Sig Wave height 4.6ft
  • Swell Direction
  • Peak Period 6s
  • Average Period 5s
  • Wind
    18mph, 20mph gusts
  • Sea Temp 73°f
  • Luft Temp 74°f
  • Sea Pressure 1009.3mb
  • Montauk Point -23 Nm Ssw Of Montauk Point, Ny
  • Montauk Point -23 Nm Ssw Of Montauk Point, Ny

More Historic Weather Station data

Upgrade to MSW Pro to gain access to the past 30 days of data for over 8000 Wavebouys and Weather Stations around the globe.

Join

Comparision Forecast

View Surf forecast
   
Di 07/17 3:50 4.5ft 6s 5s 18 20 mph 1009.3mb 73f 74f
2:50 4.5ft 6s 5s 18 20 mph 1009.7mb 73f 74f
1:50 4.5ft 6s 5s 20 22 mph 1010.4mb 73f 75f
12:50 4.5ft 6s 5s 18 22 mph 1011.1mb 73f 74f
11:50 4.5ft 6s 5s 18 20 mph 1011.9mb 72f 74f
10:50 4.5ft 6s 5s 18 22 mph 1012.2mb 72f 74f
9:50 4.5ft 6s 5s 18 20 mph 1012.6mb 72f 74f
8:50 4.5ft 6s 5s 18 22 mph 1012.8mb 72f 74f
7:50 4.5ft 6s 5s 18 22 mph 1012.8mb 72f 74f
6:50 4.5ft 6s 5s 18 22 mph 1013mb 72f 74f
5:50 4.5ft 6s 5s 18 22 mph 1013.3mb 72f 74f
3:50 4ft 5s 4s 20 22 mph 1013.2mb 72f 74f
2:50 3.5ft 5s 4s 20 22 mph 1013.6mb 72f 74f
1:50 3.5ft 4s 4s 20 22 mph 1013.8mb 72f 74f
12:50 3.5ft 4s 4s 16 20 mph 1014.3mb 72f 74f
Mo 07/16 11:50 2.5ft 8s 4s 16 20 mph 1014.2mb 72f 75f
10:50 2.5ft 9s 4s 16 16 mph 1014.5mb 73f 74f
9:50 2.5ft 9s 4s 11 16 mph 1015mb 73f 74f
8:50 2.5ft 5s 4s 11 13 mph 1014.5mb 73f 74f
7:50 2.5ft 5s 4s 16 18 mph 1014.4mb 73f 74f
5:50 2.5ft 5s 5s 11 13 mph 1014.6mb 74f 74f
4:50 2.5ft 5s 5s 11 13 mph 1015mb 74f 74f
3:50 2.5ft 8s 5s 11 13 mph 1015.2mb 74f 74f
2:50 2.5ft 5s 6s 9 11 mph 1015.4mb 74f 74f
1:50 2.5ft 8s 6s 7 9 mph 1015.7mb 74f 74f
12:50 2.5ft 8s 6s 7 9 mph 1016.3mb 73f 74f
10:50 2.5ft 8s 5s 4 7 mph 1016.2mb 73f 73f
9:50 2.5ft 9s 5s 7 7 mph 1016.3mb 72f 73f
8:50 2.5ft 9s 5s 7 7 mph 1015.9mb 72f 73f
7:50 2.5ft 9s 5s 4 7 mph 1016mb 71f 73f
6:50 2.5ft 11s 5s 4 7 mph 1015.9mb 71f 72f
4:50 2.5ft 8s 5s 7 7 mph 1015.2mb 71f 72f
3:50 2.5ft 11s 5s 7 9 mph 1015.4mb 71f 72f
2:50 2.5ft 11s 5s 7 9 mph 1015.5mb 71f 72f
12:50 2.5ft 7s 5s 11 11 mph 1015.7mb 71f 72f
So 07/15 11:50 3ft 7s 5s 11 13 mph 1015.6mb 71f 72f
10:50 2.5ft 5s 5s 11 13 mph 1015.5mb 71f 73f
9:50 3ft 5s 5s 11 13 mph 1015.3mb 71f 73f
8:50 3ft 5s 4s 11 13 mph 1014.9mb 71f 72f
7:50 3.5ft 4s 4s 16 18 mph 1014.6mb 71f 73f
5:50 3ft 6s 5s 11 13 mph 1014.4mb 71f 72f
4:50 3ft 5s 5s 11 13 mph 1014.7mb 71f 72f
3:50 3ft 5s 5s 13 18 mph 1014.7mb 71f 72f
2:50 3ft 6s 4s 16 18 mph 1015.2mb 71f 72f
12:50 3.5ft 6s 5s 13 16 mph 1015.8mb 71f 72f
11:50 3ft 6s 4s 13 16 mph 1016mb 71f 72f
10:50 3.5ft 6s 5s 13 18 mph 1015.9mb 71f 72f
8:50 3.5ft 6s 5s 16 18 mph 1015.7mb 71f 71f
7:50 3.5ft 6s 5s 13 18 mph 1016.1mb 71f 72f
6:50 3.5ft 6s 5s 9 11 mph 1016.5mb 71f 72f
4:50 3.5ft 5s 5s 9 11 mph 1015.9mb 71f 72f
3:50 3.5ft 5s 5s 7 9 mph 1015.2mb 71f 73f
2:50 3.5ft 5s 5s 13 18 mph 1016.5mb 71f 73f
1:50 3.5ft 11s 5s 13 16 mph 1016.7mb 71f 73f
12:50 3.5ft 9s 5s 11 11 mph 1017.1mb 71f 73f
Sa 07/14 11:50 3.5ft 10s 5s 9 11 mph 1017.1mb 71f 73f
10:50 3.5ft 9s 5s 11 13 mph 1017.4mb 71f 73f
8:50 3ft 11s 5s 11 13 mph 1017.4mb 72f 73f
7:50 2.5ft 11s 5s 11 13 mph 1017.6mb 72f 72f
6:50 2.5ft 7s 5s 13 13 mph 1018.1mb 72f 72f
5:50 2.5ft 11s 5s 11 13 mph 1018.6mb 72f 72f
4:50 2.5ft 8s 5s 11 13 mph 1019.2mb 72f 72f
3:50 2.5ft 11s 4s 11 13 mph 1019.7mb 72f 72f
2:50 2.5ft 8s 5s 13 16 mph 1020mb 71f 71f
1:50 2.5ft 8s 5s 11 13 mph 1020.4mb 71f 71f
12:50 3ft 12s 5s 11 13 mph 1020.6mb 71f 71f
11:50 2.5ft 8s 5s 9 11 mph 1021.2mb 71f 71f
10:50 2.5ft 7s 6s 11 13 mph 1021mb 71f 71f
8:50 3ft 8s 6s 9 11 mph 1021.6mb 71f 70f
7:50 2.5ft 8s 6s 7 9 mph 1021.6mb 70f 71f
5:50 2.5ft 8s 6s 7 7 mph 1021.9mb 70f 70f
4:50 2.5ft 8s 6s 4 7 mph 1022.3mb 70f 70f
3:50 2.5ft 8s 5s 7 7 mph 1022.4mb 71f 70f
2:50 2.5ft 8s 5s 7 9 mph 1022.7mb 71f 70f
1:50 2.5ft 8s 5s 9 11 mph 1022.8mb 71f 71f
12:50 2.5ft 8s 6s 11 11 mph 1022.8mb 71f 71f
Fr 07/13 11:50 2.5ft 8s 5s 11 13 mph 1022.9mb 71f 71f
10:50 2.5ft 8s 6s 11 13 mph 1023.2mb 71f 71f
9:50 2.5ft 8s 6s 11 13 mph 1023.4mb 71f 71f
8:50 2.5ft 8s 6s 11 13 mph 1022.9mb 71f 71f